sensor_id;sensor_type;location;lat;lon;timestamp;temperature;humidity
10278;DHT22;5184;51.376;7.148;2023-05-07T00:01:42;14.00;99.90
10278;DHT22;5184;51.376;7.148;2023-05-07T00:04:08;14.00;99.90
10278;DHT22;5184;51.376;7.148;2023-05-07T00:06:35;14.00;99.90
10278;DHT22;5184;51.376;7.148;2023-05-07T00:09:02;14.00;99.90
10278;DHT22;5184;51.376;7.148;2023-05-07T00:11:29;14.00;99.90
10278;DHT22;5184;51.376;7.148;2023-05-07T00:13:56;14.00;99.90
10278;DHT22;5184;51.376;7.148;2023-05-07T00:16:23;14.00;99.90
10278;DHT22;5184;51.376;7.148;2023-05-07T00:18:50;14.00;99.90
10278;DHT22;5184;51.376;7.148;2023-05-07T00:21:16;14.00;99.90
10278;DHT22;5184;51.376;7.148;2023-05-07T00:23:43;14.00;99.90
10278;DHT22;5184;51.376;7.148;2023-05-07T00:26:09;13.90;99.90
10278;DHT22;5184;51.376;7.148;2023-05-07T00:28:37;13.90;99.90
10278;DHT22;5184;51.376;7.148;2023-05-07T00:31:04;13.90;99.90
10278;DHT22;5184;51.376;7.148;2023-05-07T00:33:31;13.90;99.90
10278;DHT22;5184;51.376;7.148;2023-05-07T00:35:57;13.90;99.90
10278;DHT22;5184;51.376;7.148;2023-05-07T00:38:24;13.90;99.90
10278;DHT22;5184;51.376;7.148;2023-05-07T00:40:51;13.90;99.90
10278;DHT22;5184;51.376;7.148;2023-05-07T00:43:18;13.90;99.90
10278;DHT22;5184;51.376;7.148;2023-05-07T00:45:45;13.90;99.90
10278;DHT22;5184;51.376;7.148;2023-05-07T00:48:13;13.90;99.90
10278;DHT22;5184;51.376;7.148;2023-05-07T00:50:39;13.80;99.90
10278;DHT22;5184;51.376;7.148;2023-05-07T00:53:06;13.80;99.90
10278;DHT22;5184;51.376;7.148;2023-05-07T00:55:32;13.80;99.90
10278;DHT22;5184;51.376;7.148;2023-05-07T00:57:59;13.80;99.90
10278;DHT22;5184;51.376;7.148;2023-05-07T01:00:26;13.80;99.90
10278;DHT22;5184;51.376;7.148;2023-05-07T01:02:53;13.80;99.90
10278;DHT22;5184;51.376;7.148;2023-05-07T01:05:20;13.80;99.90
10278;DHT22;5184;51.376;7.148;2023-05-07T01:07:46;13.70;99.90
10278;DHT22;5184;51.376;7.148;2023-05-07T01:10:13;13.70;99.90
10278;DHT22;5184;51.376;7.148;2023-05-07T01:12:39;13.60;99.90
10278;DHT22;5184;51.376;7.148;2023-05-07T01:15:07;13.60;99.90
10278;DHT22;5184;51.376;7.148;2023-05-07T01:17:36;13.60;99.90
10278;DHT22;5184;51.376;7.148;2023-05-07T01:20:02;13.50;99.90
10278;DHT22;5184;51.376;7.148;2023-05-07T01:22:31;13.50;99.90
10278;DHT22;5184;51.376;7.148;2023-05-07T01:24:56;13.50;99.90
10278;DHT22;5184;51.376;7.148;2023-05-07T01:27:23;13.50;99.90
10278;DHT22;5184;51.376;7.148;2023-05-07T01:29:49;13.50;99.90
10278;DHT22;5184;51.376;7.148;2023-05-07T01:32:16;13.50;99.90
10278;DHT22;5184;51.376;7.148;2023-05-07T01:34:43;13.50;99.90
10278;DHT22;5184;51.376;7.148;2023-05-07T01:37:10;13.50;99.90
10278;DHT22;5184;51.376;7.148;2023-05-07T01:39:38;13.40;99.90
10278;DHT22;5184;51.376;7.148;2023-05-07T01:42:04;13.40;99.90
10278;DHT22;5184;51.376;7.148;2023-05-07T01:44:30;13.40;99.90
10278;DHT22;5184;51.376;7.148;2023-05-07T01:46:57;13.40;99.90
10278;DHT22;5184;51.376;7.148;2023-05-07T01:49:24;13.30;99.90
10278;DHT22;5184;51.376;7.148;2023-05-07T01:51:51;13.30;99.90
10278;DHT22;5184;51.376;7.148;2023-05-07T01:54:18;13.30;99.90
10278;DHT22;5184;51.376;7.148;2023-05-07T01:56:45;13.30;99.90
10278;DHT22;5184;51.376;7.148;2023-05-07T01:59:12;13.30;99.90
10278;DHT22;5184;51.376;7.148;2023-05-07T02:01:38;13.30;99.90
10278;DHT22;5184;51.376;7.148;2023-05-07T02:04:05;13.30;99.90
10278;DHT22;5184;51.376;7.148;2023-05-07T02:06:31;13.30;99.90
10278;DHT22;5184;51.376;7.148;2023-05-07T02:08:58;13.20;99.90
10278;DHT22;5184;51.376;7.148;2023-05-07T02:11:25;13.20;99.90
10278;DHT22;5184;51.376;7.148;2023-05-07T02:13:52;13.20;99.90
10278;DHT22;5184;51.376;7.148;2023-05-07T02:16:19;13.20;99.90
10278;DHT22;5184;51.376;7.148;2023-05-07T02:18:45;13.20;99.90
10278;DHT22;5184;51.376;7.148;2023-05-07T02:21:12;13.10;99.90
10278;DHT22;5184;51.376;7.148;2023-05-07T02:23:40;13.10;99.90
10278;DHT22;5184;51.376;7.148;2023-05-07T02:26:06;13.10;99.90
10278;DHT22;5184;51.376;7.148;2023-05-07T02:28:33;13.10;99.90
10278;DHT22;5184;51.376;7.148;2023-05-07T02:31:00;13.00;99.90
10278;DHT22;5184;51.376;7.148;2023-05-07T02:33:26;13.00;99.90
10278;DHT22;5184;51.376;7.148;2023-05-07T02:35:53;13.00;99.90
10278;DHT22;5184;51.376;7.148;2023-05-07T02:38:20;12.90;99.90
10278;DHT22;5184;51.376;7.148;2023-05-07T02:40:48;12.90;99.90
10278;DHT22;5184;51.376;7.148;2023-05-07T02:43:14;12.90;99.90
10278;DHT22;5184;51.376;7.148;2023-05-07T02:45:41;12.80;99.90
10278;DHT22;5184;51.376;7.148;2023-05-07T02:48:07;12.80;99.90
10278;DHT22;5184;51.376;7.148;2023-05-07T02:50:34;12.70;99.90
10278;DHT22;5184;51.376;7.148;2023-05-07T02:53:01;12.70;99.90
10278;DHT22;5184;51.376;7.148;2023-05-07T02:55:28;12.60;99.90
10278;DHT22;5184;51.376;7.148;2023-05-07T02:57:55;12.60;99.90
10278;DHT22;5184;51.376;7.148;2023-05-07T03:00:22;12.60;99.90
10278;DHT22;5184;51.376;7.148;2023-05-07T03:02:49;12.60;99.90
10278;DHT22;5184;51.376;7.148;2023-05-07T03:05:15;12.50;99.90
10278;DHT22;5184;51.376;7.148;2023-05-07T03:07:42;12.50;99.90
10278;DHT22;5184;51.376;7.148;2023-05-07T03:10:08;12.40;99.90
10278;DHT22;5184;51.376;7.148;2023-05-07T03:12:36;12.40;99.90
10278;DHT22;5184;51.376;7.148;2023-05-07T03:15:03;12.30;99.90
10278;DHT22;5184;51.376;7.148;2023-05-07T03:17:31;12.30;99.90
10278;DHT22;5184;51.376;7.148;2023-05-07T03:19:58;12.30;99.90
10278;DHT22;5184;51.376;7.148;2023-05-07T03:22:26;12.30;99.90
10278;DHT22;5184;51.376;7.148;2023-05-07T03:24:52;12.30;99.90
10278;DHT22;5184;51.376;7.148;2023-05-07T03:27:19;12.30;99.90
10278;DHT22;5184;51.376;7.148;2023-05-07T03:29:46;12.30;99.90
10278;DHT22;5184;51.376;7.148;2023-05-07T03:32:13;12.30;99.90
10278;DHT22;5184;51.376;7.148;2023-05-07T03:34:40;12.30;99.90
10278;DHT22;5184;51.376;7.148;2023-05-07T03:37:07;12.40;99.90
10278;DHT22;5184;51.376;7.148;2023-05-07T03:39:35;12.30;99.90
10278;DHT22;5184;51.376;7.148;2023-05-07T03:42:02;12.30;99.90
10278;DHT22;5184;51.376;7.148;2023-05-07T03:44:29;12.30;99.90
10278;DHT22;5184;51.376;7.148;2023-05-07T03:46:55;12.30;99.90
10278;DHT22;5184;51.376;7.148;2023-05-07T03:49:22;12.30;99.90
10278;DHT22;5184;51.376;7.148;2023-05-07T03:51:48;12.30;99.90
10278;DHT22;5184;51.376;7.148;2023-05-07T03:54:15;12.30;99.90
10278;DHT22;5184;51.376;7.148;2023-05-07T03:56:42;12.20;99.90
10278;DHT22;5184;51.376;7.148;2023-05-07T03:59:10;12.20;99.90
10278;DHT22;5184;51.376;7.148;2023-05-07T04:01:36;12.20;99.90
10278;DHT22;5184;51.376;7.148;2023-05-07T04:04:03;12.20;99.90
10278;DHT22;5184;51.376;7.148;2023-05-07T04:06:30;12.20;99.90
10278;DHT22;5184;51.376;7.148;2023-05-07T04:08:56;12.20;99.90
10278;DHT22;5184;51.376;7.148;2023-05-07T04:11:24;12.20;99.90
10278;DHT22;5184;51.376;7.148;2023-05-07T04:13:50;12.20;99.90
10278;DHT22;5184;51.376;7.148;2023-05-07T04:16:17;12.20;99.90
10278;DHT22;5184;51.376;7.148;2023-05-07T04:18:44;12.20;99.90
10278;DHT22;5184;51.376;7.148;2023-05-07T04:21:15;12.20;99.90
10278;DHT22;5184;51.376;7.148;2023-05-07T04:23:41;12.30;99.90
10278;DHT22;5184;51.376;7.148;2023-05-07T04:26:08;12.30;99.90
10278;DHT22;5184;51.376;7.148;2023-05-07T04:28:35;12.30;99.90
10278;DHT22;5184;51.376;7.148;2023-05-07T04:31:03;12.30;99.90
10278;DHT22;5184;51.376;7.148;2023-05-07T04:33:30;12.30;99.90
10278;DHT22;5184;51.376;7.148;2023-05-07T04:35:57;12.30;99.90
10278;DHT22;5184;51.376;7.148;2023-05-07T04:38:23;12.30;99.90
10278;DHT22;5184;51.376;7.148;2023-05-07T04:40:50;12.40;99.90
10278;DHT22;5184;51.376;7.148;2023-05-07T04:43:16;12.40;99.90
10278;DHT22;5184;51.376;7.148;2023-05-07T04:45:43;12.40;99.90
10278;DHT22;5184;51.376;7.148;2023-05-07T04:48:10;12.60;99.90
10278;DHT22;5184;51.376;7.148;2023-05-07T04:50:38;12.60;99.90
10278;DHT22;5184;51.376;7.148;2023-05-07T04:53:04;12.60;99.90
10278;DHT22;5184;51.376;7.148;2023-05-07T04:55:31;12.70;99.90
10278;DHT22;5184;51.376;7.148;2023-05-07T04:57:57;12.80;99.90
10278;DHT22;5184;51.376;7.148;2023-05-07T05:00:24;12.80;99.90
10278;DHT22;5184;51.376;7.148;2023-05-07T05:02:51;12.90;99.90
10278;DHT22;5184;51.376;7.148;2023-05-07T05:05:17;12.90;99.90
10278;DHT22;5184;51.376;7.148;2023-05-07T05:07:45;13.00;99.90
10278;DHT22;5184;51.376;7.148;2023-05-07T05:10:12;13.00;99.90
10278;DHT22;5184;51.376;7.148;2023-05-07T05:12:39;13.10;99.90
10278;DHT22;5184;51.376;7.148;2023-05-07T05:15:06;13.10;99.90
10278;DHT22;5184;51.376;7.148;2023-05-07T05:17:33;13.10;99.90
10278;DHT22;5184;51.376;7.148;2023-05-07T05:20:00;13.20;99.90
10278;DHT22;5184;51.376;7.148;2023-05-07T05:22:28;13.00;99.90
10278;DHT22;5184;51.376;7.148;2023-05-07T05:24:55;13.30;99.90
10278;DHT22;5184;51.376;7.148;2023-05-07T05:27:22;13.30;99.90
10278;DHT22;5184;51.376;7.148;2023-05-07T05:29:48;13.40;99.90
10278;DHT22;5184;51.376;7.148;2023-05-07T05:32:15;13.50;99.90
10278;DHT22;5184;51.376;7.148;2023-05-07T05:34:41;13.60;99.90
10278;DHT22;5184;51.376;7.148;2023-05-07T05:37:08;13.60;99.90
10278;DHT22;5184;51.376;7.148;2023-05-07T05:39:34;13.70;99.90
10278;DHT22;5184;51.376;7.148;2023-05-07T05:42:01;13.80;99.90
10278;DHT22;5184;51.376;7.148;2023-05-07T05:44:28;13.80;99.90
10278;DHT22;5184;51.376;7.148;2023-05-07T05:46:55;13.90;99.90
10278;DHT22;5184;51.376;7.148;2023-05-07T05:49:22;14.00;99.90
10278;DHT22;5184;51.376;7.148;2023-05-07T05:51:48;14.00;99.90
10278;DHT22;5184;51.376;7.148;2023-05-07T05:54:16;14.20;99.90
10278;DHT22;5184;51.376;7.148;2023-05-07T05:56:43;14.30;99.90
10278;DHT22;5184;51.376;7.148;2023-05-07T05:59:10;14.30;99.90
10278;DHT22;5184;51.376;7.148;2023-05-07T06:01:37;14.30;99.90
10278;DHT22;5184;51.376;7.148;2023-05-07T06:04:04;14.50;99.90
10278;DHT22;5184;51.376;7.148;2023-05-07T06:06:31;14.50;99.90
10278;DHT22;5184;51.376;7.148;2023-05-07T06:08:58;14.60;99.90
10278;DHT22;5184;51.376;7.148;2023-05-07T06:11:25;14.70;99.90
10278;DHT22;5184;51.376;7.148;2023-05-07T06:13:52;14.70;99.90
10278;DHT22;5184;51.376;7.148;2023-05-07T06:16:20;14.80;99.90
10278;DHT22;5184;51.376;7.148;2023-05-07T06:18:46;14.80;99.90
10278;DHT22;5184;51.376;7.148;2023-05-07T06:21:13;14.80;99.90
10278;DHT22;5184;51.376;7.148;2023-05-07T06:23:39;14.90;99.90
10278;DHT22;5184;51.376;7.148;2023-05-07T06:26:06;14.90;99.90
10278;DHT22;5184;51.376;7.148;2023-05-07T06:28:33;15.00;76.90
10278;DHT22;5184;51.376;7.148;2023-05-07T06:31:11;15.00;95.00
10278;DHT22;5184;51.376;7.148;2023-05-07T06:33:37;15.10;89.10
10278;DHT22;5184;51.376;7.148;2023-05-07T06:36:04;15.10;1.00
10278;DHT22;5184;51.376;7.148;2023-05-07T06:38:31;15.20;7.60
10278;DHT22;5184;51.376;7.148;2023-05-07T06:40:58;15.20;8.30
10278;DHT22;5184;51.376;7.148;2023-05-07T06:43:25;15.40;10.10
10278;DHT22;5184;51.376;7.148;2023-05-07T06:45:52;15.60;1.00
10278;DHT22;5184;51.376;7.148;2023-05-07T06:48:20;15.90;1.00
10278;DHT22;5184;51.376;7.148;2023-05-07T06:50:47;15.60;99.90
10278;DHT22;5184;51.376;7.148;2023-05-07T06:53:14;15.60;99.90
10278;DHT22;5184;51.376;7.148;2023-05-07T06:55:42;15.80;99.90
10278;DHT22;5184;51.376;7.148;2023-05-07T06:58:09;15.80;99.90
10278;DHT22;5184;51.376;7.148;2023-05-07T07:00:36;15.90;42.60
10278;DHT22;5184;51.376;7.148;2023-05-07T07:03:03;15.90;39.50
10278;DHT22;5184;51.376;7.148;2023-05-07T07:05:30;15.90;4.30
10278;DHT22;5184;51.376;7.148;2023-05-07T07:07:56;16.00;12.70
10278;DHT22;5184;51.376;7.148;2023-05-07T07:10:23;16.10;99.90
10278;DHT22;5184;51.376;7.148;2023-05-07T07:12:50;16.10;68.90
10278;DHT22;5184;51.376;7.148;2023-05-07T07:15:17;16.30;19.70
10278;DHT22;5184;51.376;7.148;2023-05-07T07:17:44;16.40;99.90
10278;DHT22;5184;51.376;7.148;2023-05-07T07:20:12;16.40;1.00
10278;DHT22;5184;51.376;7.148;2023-05-07T07:22:38;16.40;1.00
10278;DHT22;5184;51.376;7.148;2023-05-07T07:25:05;16.50;1.00
10278;DHT22;5184;51.376;7.148;2023-05-07T07:27:31;16.60;1.00
10278;DHT22;5184;51.376;7.148;2023-05-07T07:29:58;16.70;1.00
10278;DHT22;5184;51.376;7.148;2023-05-07T07:32:25;16.80;99.90
10278;DHT22;5184;51.376;7.148;2023-05-07T07:34:51;16.80;99.90
10278;DHT22;5184;51.376;7.148;2023-05-07T07:37:19;17.10;99.90
10278;DHT22;5184;51.376;7.148;2023-05-07T07:39:46;17.10;1.00
10278;DHT22;5184;51.376;7.148;2023-05-07T07:42:13;17.20;1.00
10278;DHT22;5184;51.376;7.148;2023-05-07T07:44:40;17.20;1.00
10278;DHT22;5184;51.376;7.148;2023-05-07T07:47:07;17.20;99.90
10278;DHT22;5184;51.376;7.148;2023-05-07T07:49:33;17.30;1.00
10278;DHT22;5184;51.376;7.148;2023-05-07T07:52:00;17.40;99.90
10278;DHT22;5184;51.376;7.148;2023-05-07T07:54:26;17.50;1.00
10278;DHT22;5184;51.376;7.148;2023-05-07T07:56:54;17.60;99.90
10278;DHT22;5184;51.376;7.148;2023-05-07T07:59:21;17.60;99.90
10278;DHT22;5184;51.376;7.148;2023-05-07T08:01:48;17.60;99.90
10278;DHT22;5184;51.376;7.148;2023-05-07T08:04:15;17.60;99.90
10278;DHT22;5184;51.376;7.148;2023-05-07T08:06:42;17.60;61.50
10278;DHT22;5184;51.376;7.148;2023-05-07T08:09:08;17.70;99.90
10278;DHT22;5184;51.376;7.148;2023-05-07T08:11:35;17.70;1.00
10278;DHT22;5184;51.376;7.148;2023-05-07T08:14:01;17.80;1.00
10278;DHT22;5184;51.376;7.148;2023-05-07T08:16:29;18.00;1.00
10278;DHT22;5184;51.376;7.148;2023-05-07T08:18:56;18.10;99.90
10278;DHT22;5184;51.376;7.148;2023-05-07T08:21:23;18.10;99.90
10278;DHT22;5184;51.376;7.148;2023-05-07T08:23:51;18.10;99.90
10278;DHT22;5184;51.376;7.148;2023-05-07T08:26:18;18.10;99.90
10278;DHT22;5184;51.376;7.148;2023-05-07T08:28:45;18.20;99.90
10278;DHT22;5184;51.376;7.148;2023-05-07T08:31:11;18.30;99.90
10278;DHT22;5184;51.376;7.148;2023-05-07T08:33:39;18.50;74.00
10278;DHT22;5184;51.376;7.148;2023-05-07T08:36:06;18.60;1.00
10278;DHT22;5184;51.376;7.148;2023-05-07T08:38:33;18.60;1.00
10278;DHT22;5184;51.376;7.148;2023-05-07T08:40:59;18.50;1.00
10278;DHT22;5184;51.376;7.148;2023-05-07T08:43:27;18.70;1.00
10278;DHT22;5184;51.376;7.148;2023-05-07T08:45:54;18.80;99.90
10278;DHT22;5184;51.376;7.148;2023-05-07T08:48:24;18.80;1.00
10278;DHT22;5184;51.376;7.148;2023-05-07T08:50:49;18.80;1.00
10278;DHT22;5184;51.376;7.148;2023-05-07T08:53:16;18.90;22.10
10278;DHT22;5184;51.376;7.148;2023-05-07T08:55:43;19.00;18.20
10278;DHT22;5184;51.376;7.148;2023-05-07T08:58:09;19.00;6.60
10278;DHT22;5184;51.376;7.148;2023-05-07T09:00:36;19.10;1.00
10278;DHT22;5184;51.376;7.148;2023-05-07T09:03:03;19.10;1.00
10278;DHT22;5184;51.376;7.148;2023-05-07T09:05:29;19.20;99.90
10278;DHT22;5184;51.376;7.148;2023-05-07T09:07:58;19.30;99.90
10278;DHT22;5184;51.376;7.148;2023-05-07T09:10:23;19.50;1.00
10278;DHT22;5184;51.376;7.148;2023-05-07T09:12:51;19.50;1.00
10278;DHT22;5184;51.376;7.148;2023-05-07T09:15:18;19.50;99.90
10278;DHT22;5184;51.376;7.148;2023-05-07T09:17:45;19.60;1.00
10278;DHT22;5184;51.376;7.148;2023-05-07T09:20:13;19.60;66.20
10278;DHT22;5184;51.376;7.148;2023-05-07T09:22:40;19.70;99.90
10278;DHT22;5184;51.376;7.148;2023-05-07T09:25:07;19.70;99.90
10278;DHT22;5184;51.376;7.148;2023-05-07T09:27:34;19.70;1.00
10278;DHT22;5184;51.376;7.148;2023-05-07T09:30:03;19.80;1.00
10278;DHT22;5184;51.376;7.148;2023-05-07T09:32:29;19.80;1.00
10278;DHT22;5184;51.376;7.148;2023-05-07T09:34:56;19.80;1.00
10278;DHT22;5184;51.376;7.148;2023-05-07T09:37:22;19.80;1.00
10278;DHT22;5184;51.376;7.148;2023-05-07T09:39:49;19.80;33.80
10278;DHT22;5184;51.376;7.148;2023-05-07T09:42:16;20.10;99.90
10278;DHT22;5184;51.376;7.148;2023-05-07T09:44:44;20.20;99.90
10278;DHT22;5184;51.376;7.148;2023-05-07T09:47:10;20.20;99.90
10278;DHT22;5184;51.376;7.148;2023-05-07T09:49:38;20.20;1.00
10278;DHT22;5184;51.376;7.148;2023-05-07T09:52:04;20.40;99.90
10278;DHT22;5184;51.376;7.148;2023-05-07T09:54:30;20.40;99.90
10278;DHT22;5184;51.376;7.148;2023-05-07T09:56:57;20.40;99.90
10278;DHT22;5184;51.376;7.148;2023-05-07T09:59:24;20.60;99.90
10278;DHT22;5184;51.376;7.148;2023-05-07T10:01:51;20.60;99.90
10278;DHT22;5184;51.376;7.148;2023-05-07T10:04:17;20.60;99.90
10278;DHT22;5184;51.376;7.148;2023-05-07T10:06:44;20.70;58.00
10278;DHT22;5184;51.376;7.148;2023-05-07T10:09:10;20.80;1.00
10278;DHT22;5184;51.376;7.148;2023-05-07T10:11:37;20.80;1.00
10278;DHT22;5184;51.376;7.148;2023-05-07T10:14:04;20.60;15.10
10278;DHT22;5184;51.376;7.148;2023-05-07T10:16:32;20.60;3.80
10278;DHT22;5184;51.376;7.148;2023-05-07T10:18:59;20.70;1.00
10278;DHT22;5184;51.376;7.148;2023-05-07T10:21:27;20.80;33.60
10278;DHT22;5184;51.376;7.148;2023-05-07T10:23:57;20.80;22.20
10278;DHT22;5184;51.376;7.148;2023-05-07T10:26:21;21.00;1.00
10278;DHT22;5184;51.376;7.148;2023-05-07T10:28:49;21.20;1.00
10278;DHT22;5184;51.376;7.148;2023-05-07T10:34:06;21.30;1.00
10278;DHT22;5184;51.376;7.148;2023-05-07T10:36:29;21.40;99.90
10278;DHT22;5184;51.376;7.148;2023-05-07T10:38:56;21.30;1.00
10278;DHT22;5184;51.376;7.148;2023-05-07T10:41:22;21.40;1.00
10278;DHT22;5184;51.376;7.148;2023-05-07T10:43:49;21.50;1.00
10278;DHT22;5184;51.376;7.148;2023-05-07T10:46:18;21.50;1.00
10278;DHT22;5184;51.376;7.148;2023-05-07T10:51:22;21.50;1.00
10278;DHT22;5184;51.376;7.148;2023-05-07T10:54:06;21.40;1.00
10278;DHT22;5184;51.376;7.148;2023-05-07T10:56:25;21.50;1.00
10278;DHT22;5184;51.376;7.148;2023-05-07T10:58:51;21.60;1.00
10278;DHT22;5184;51.376;7.148;2023-05-07T11:01:49;21.60;1.00
10278;DHT22;5184;51.376;7.148;2023-05-07T11:06:24;21.60;1.00
10278;DHT22;5184;51.376;7.148;2023-05-07T11:08:54;21.60;1.00
10278;DHT22;5184;51.376;7.148;2023-05-07T11:11:20;21.70;1.00
10278;DHT22;5184;51.376;7.148;2023-05-07T11:13:47;21.90;91.10
10278;DHT22;5184;51.376;7.148;2023-05-07T11:16:18;21.90;1.00
10278;DHT22;5184;51.376;7.148;2023-05-07T11:18:47;21.90;1.00
10278;DHT22;5184;51.376;7.148;2023-05-07T11:21:14;21.90;1.00
10278;DHT22;5184;51.376;7.148;2023-05-07T11:23:56;21.80;1.00
10278;DHT22;5184;51.376;7.148;2023-05-07T11:26:23;21.80;1.00
10278;DHT22;5184;51.376;7.148;2023-05-07T11:28:49;21.80;1.00
10278;DHT22;5184;51.376;7.148;2023-05-07T11:31:19;21.70;99.90
10278;DHT22;5184;51.376;7.148;2023-05-07T11:33:44;21.80;1.00
10278;DHT22;5184;51.376;7.148;2023-05-07T11:36:11;21.70;1.00
10278;DHT22;5184;51.376;7.148;2023-05-07T11:38:38;21.50;99.90
10278;DHT22;5184;51.376;7.148;2023-05-07T11:41:06;21.50;99.90
10278;DHT22;5184;51.376;7.148;2023-05-07T11:43:33;21.60;1.00
10278;DHT22;5184;51.376;7.148;2023-05-07T11:46:08;21.60;1.00
10278;DHT22;5184;51.376;7.148;2023-05-07T11:48:34;21.60;1.00
10278;DHT22;5184;51.376;7.148;2023-05-07T11:51:02;21.60;1.00
10278;DHT22;5184;51.376;7.148;2023-05-07T11:53:36;21.60;1.00
10278;DHT22;5184;51.376;7.148;2023-05-07T11:56:07;21.50;1.00
10278;DHT22;5184;51.376;7.148;2023-05-07T11:58:33;21.50;1.00
10278;DHT22;5184;51.376;7.148;2023-05-07T12:01:00;21.50;1.00
10278;DHT22;5184;51.376;7.148;2023-05-07T12:03:27;21.50;1.00
10278;DHT22;5184;51.376;7.148;2023-05-07T12:05:54;21.60;1.00
10278;DHT22;5184;51.376;7.148;2023-05-07T12:08:21;21.60;1.00
10278;DHT22;5184;51.376;7.148;2023-05-07T12:10:49;21.70;99.90
10278;DHT22;5184;51.376;7.148;2023-05-07T12:13:17;21.60;99.90
10278;DHT22;5184;51.376;7.148;2023-05-07T12:15:44;21.70;99.90
10278;DHT22;5184;51.376;7.148;2023-05-07T12:18:12;21.80;99.90
10278;DHT22;5184;51.376;7.148;2023-05-07T12:20:39;21.90;99.90
10278;DHT22;5184;51.376;7.148;2023-05-07T12:23:06;21.90;1.00
10278;DHT22;5184;51.376;7.148;2023-05-07T12:25:35;21.80;1.00
10278;DHT22;5184;51.376;7.148;2023-05-07T12:28:02;22.00;1.00
10278;DHT22;5184;51.376;7.148;2023-05-07T12:30:29;22.20;99.90
10278;DHT22;5184;51.376;7.148;2023-05-07T12:32:56;22.20;99.90
10278;DHT22;5184;51.376;7.148;2023-05-07T12:35:29;22.30;99.90
10278;DHT22;5184;51.376;7.148;2023-05-07T12:37:56;22.20;99.90
10278;DHT22;5184;51.376;7.148;2023-05-07T12:40:22;22.20;99.90
10278;DHT22;5184;51.376;7.148;2023-05-07T12:42:49;22.10;99.90
10278;DHT22;5184;51.376;7.148;2023-05-07T12:45:16;22.00;99.90
10278;DHT22;5184;51.376;7.148;2023-05-07T12:47:44;21.80;1.00
10278;DHT22;5184;51.376;7.148;2023-05-07T12:50:12;21.40;1.00
10278;DHT22;5184;51.376;7.148;2023-05-07T12:52:38;21.40;1.00
10278;DHT22;5184;51.376;7.148;2023-05-07T12:55:05;21.20;14.70
10278;DHT22;5184;51.376;7.148;2023-05-07T12:57:39;21.20;8.90
10278;DHT22;5184;51.376;7.148;2023-05-07T13:00:07;21.00;99.90
10278;DHT22;5184;51.376;7.148;2023-05-07T13:02:34;21.00;99.90
10278;DHT22;5184;51.376;7.148;2023-05-07T13:05:00;21.00;99.90
10278;DHT22;5184;51.376;7.148;2023-05-07T13:07:27;20.80;99.90
10278;DHT22;5184;51.376;7.148;2023-05-07T13:09:55;20.90;99.90
10278;DHT22;5184;51.376;7.148;2023-05-07T13:12:22;20.90;99.90
10278;DHT22;5184;51.376;7.148;2023-05-07T13:14:50;20.90;99.90
10278;DHT22;5184;51.376;7.148;2023-05-07T13:17:16;20.90;99.90
10278;DHT22;5184;51.376;7.148;2023-05-07T13:19:43;20.90;99.90
10278;DHT22;5184;51.376;7.148;2023-05-07T13:22:10;20.90;99.90
10278;DHT22;5184;51.376;7.148;2023-05-07T13:24:37;20.90;99.90
10278;DHT22;5184;51.376;7.148;2023-05-07T13:27:04;20.70;1.00
10278;DHT22;5184;51.376;7.148;2023-05-07T13:29:31;20.70;1.00
10278;DHT22;5184;51.376;7.148;2023-05-07T13:31:59;20.60;1.00
10278;DHT22;5184;51.376;7.148;2023-05-07T13:34:27;20.50;1.00
10278;DHT22;5184;51.376;7.148;2023-05-07T13:36:53;20.50;1.00
10278;DHT22;5184;51.376;7.148;2023-05-07T13:39:20;20.50;1.00
10278;DHT22;5184;51.376;7.148;2023-05-07T13:41:47;20.40;1.00
10278;DHT22;5184;51.376;7.148;2023-05-07T13:44:13;20.30;67.50
10278;DHT22;5184;51.376;7.148;2023-05-07T13:46:40;20.30;99.90
10278;DHT22;5184;51.376;7.148;2023-05-07T13:49:06;20.30;99.90
10278;DHT22;5184;51.376;7.148;2023-05-07T13:51:34;20.10;99.90
10278;DHT22;5184;51.376;7.148;2023-05-07T13:54:01;20.10;99.90
10278;DHT22;5184;51.376;7.148;2023-05-07T13:56:29;20.00;99.90
10278;DHT22;5184;51.376;7.148;2023-05-07T13:58:55;20.00;99.90
10278;DHT22;5184;51.376;7.148;2023-05-07T14:01:22;20.00;99.90
10278;DHT22;5184;51.376;7.148;2023-05-07T14:03:48;19.90;1.00
10278;DHT22;5184;51.376;7.148;2023-05-07T14:06:15;19.90;1.00
10278;DHT22;5184;51.376;7.148;2023-05-07T14:08:41;19.80;1.00
10278;DHT22;5184;51.376;7.148;2023-05-07T14:11:09;19.70;73.40
10278;DHT22;5184;51.376;7.148;2023-05-07T14:21:42;19.60;99.90
10278;DHT22;5184;51.376;7.148;2023-05-07T14:24:08;19.50;99.90
10278;DHT22;5184;51.376;7.148;2023-05-07T14:26:35;19.40;99.90
10278;DHT22;5184;51.376;7.148;2023-05-07T14:29:02;19.40;99.90
10278;DHT22;5184;51.376;7.148;2023-05-07T14:31:29;19.40;1.00
10278;DHT22;5184;51.376;7.148;2023-05-07T14:33:56;19.40;82.40
10278;DHT22;5184;51.376;7.148;2023-05-07T14:36:24;19.40;55.50
10278;DHT22;5184;51.376;7.148;2023-05-07T14:38:50;19.30;99.90
10278;DHT22;5184;51.376;7.148;2023-05-07T14:41:17;19.30;99.90
10278;DHT22;5184;51.376;7.148;2023-05-07T14:43:43;19.20;1.00
10278;DHT22;5184;51.376;7.148;2023-05-07T14:46:11;19.10;1.00
10278;DHT22;5184;51.376;7.148;2023-05-07T14:48:38;19.00;96.90
10278;DHT22;5184;51.376;7.148;2023-05-07T14:51:05;18.90;99.90
10278;DHT22;5184;51.376;7.148;2023-05-07T14:53:32;18.90;99.90
10278;DHT22;5184;51.376;7.148;2023-05-07T14:55:59;18.90;1.00
10278;DHT22;5184;51.376;7.148;2023-05-07T14:58:25;18.80;99.90
10278;DHT22;5184;51.376;7.148;2023-05-07T15:00:53;18.70;1.00
10278;DHT22;5184;51.376;7.148;2023-05-07T15:03:20;18.60;1.00
10278;DHT22;5184;51.376;7.148;2023-05-07T15:05:47;18.60;99.90
10278;DHT22;5184;51.376;7.148;2023-05-07T15:08:14;18.60;99.90
10278;DHT22;5184;51.376;7.148;2023-05-07T15:10:41;18.60;99.90
10278;DHT22;5184;51.376;7.148;2023-05-07T15:13:08;18.60;99.90
10278;DHT22;5184;51.376;7.148;2023-05-07T15:15:35;18.60;1.00
10278;DHT22;5184;51.376;7.148;2023-05-07T15:18:01;18.50;99.90
10278;DHT22;5184;51.376;7.148;2023-05-07T15:20:28;18.50;1.00
10278;DHT22;5184;51.376;7.148;2023-05-07T15:22:54;18.50;1.00
10278;DHT22;5184;51.376;7.148;2023-05-07T15:25:22;18.50;1.00
10278;DHT22;5184;51.376;7.148;2023-05-07T15:27:48;18.50;1.00
10278;DHT22;5184;51.376;7.148;2023-05-07T15:30:16;18.40;1.00
10278;DHT22;5184;51.376;7.148;2023-05-07T15:32:43;18.40;8.20
10278;DHT22;5184;51.376;7.148;2023-05-07T15:35:10;18.40;68.80
10278;DHT22;5184;51.376;7.148;2023-05-07T15:37:38;18.40;87.50
10278;DHT22;5184;51.376;7.148;2023-05-07T15:40:06;18.30;86.20
10278;DHT22;5184;51.376;7.148;2023-05-07T15:42:33;18.30;99.90
10278;DHT22;5184;51.376;7.148;2023-05-07T15:45:00;18.20;96.80
10278;DHT22;5184;51.376;7.148;2023-05-07T15:47:27;18.10;95.80
10278;DHT22;5184;51.376;7.148;2023-05-07T15:49:53;18.00;58.00
10278;DHT22;5184;51.376;7.148;2023-05-07T15:52:20;18.00;99.90
10278;DHT22;5184;51.376;7.148;2023-05-07T15:54:46;17.90;99.90
10278;DHT22;5184;51.376;7.148;2023-05-07T15:57:13;17.90;99.90
10278;DHT22;5184;51.376;7.148;2023-05-07T15:59:40;17.80;99.90
10278;DHT22;5184;51.376;7.148;2023-05-07T16:02:06;17.80;99.90
10278;DHT22;5184;51.376;7.148;2023-05-07T16:04:33;17.80;99.90